Laynesville, Kentucky
Current Conditions -  °F | °C
As of 6:55 AM on Wednesday 28 Jan 2015 (Local Time) from KPBX Reporting Station
Overcast Overcast  
Wind Chill: 18°   Ceiling: 1800
Heat Index: 18°   Visibility: 10mi
Dew Point: 14°   Wind: 0mph
Humidity: 82%   Direction: NA
Pressure: 30.28"   Gusts: NA
Location:  37.4843°N, 82.6492°W
Report Text: KPBX 281155Z AUTO 00000KT 10SM OVC018 M08/M10 A3028 RMK AO2 T10761102 11068 21084
Loading
Personal Weather Stations






























Interactive Weather Map New forecast layout! Learn more

10-Day Weather Forecast

Advertisements
Track Severe Weather on mobile